Time;durP1;ratioP1;P1;durP2;ratioP2;P2;SDS_P1;SDS_P2;PMS_P1;PMS_P2;Temp;Humidity;BMP_temperature;BMP_pressure;BME280_temperature;BME280_humidity;BME280_pressure;Samples;Min_cycle;Max_cycle;Signal;HPM_P1;HPM_P2
2022/06/03 00:00:30;;;;;;;4.80;1.08;;;16.70;99.90;;;;;;5069443;28;20044;-84
2022/06/03 00:03:05;;;;;;;4.05;1.20;;;16.70;99.90;;;;;;5039679;28;20044;-84
2022/06/03 00:05:51;;;;;;;3.00;1.30;;;16.70;99.90;;;;;;5073846;28;20023;-84
2022/06/03 00:08:35;;;;;;;3.17;1.13;;;16.70;99.90;;;;;;5110226;28;20079;-83
2022/06/03 00:11:19;;;;;;;2.80;1.30;;;16.70;99.90;;;;;;5110070;28;20539;-83
2022/06/03 00:14:09;;;;;;;3.50;1.38;;;16.60;99.90;;;;;;5091189;28;20024;-83
2022/06/03 00:17:06;;;;;;;4.38;1.25;;;16.60;99.90;;;;;;5091911;28;20042;-81
2022/06/03 00:19:55;;;;;;;5.85;1.20;;;16.60;99.90;;;;;;5109714;28;20054;-84
2022/06/03 00:22:59;;;;;;;4.28;1.50;;;16.60;99.90;;;;;;5109882;28;20071;-84
2022/06/03 00:25:46;;;;;;;7.25;1.73;;;16.50;99.90;;;;;;5109851;28;20770;-83
2022/06/03 00:28:42;;;;;;;2.75;1.55;;;16.50;99.90;;;;;;5109653;28;20027;-85
2022/06/03 00:31:54;;;;;;;1.83;1.20;;;16.50;99.90;;;;;;5108485;28;20020;-83
2022/06/03 00:34:25;;;;;;;3.70;1.67;;;16.50;99.90;;;;;;5109395;28;20034;-83
2022/06/03 00:37:23;;;;;;;5.70;1.70;;;16.50;99.90;;;;;;5109754;28;20050;-83
2022/06/03 00:40:26;;;;;;;2.38;1.30;;;16.50;99.90;;;;;;5090557;28;20043;-82
2022/06/03 00:43:12;;;;;;;2.92;1.55;;;16.50;99.90;;;;;;5109293;28;20016;-84
2022/06/03 00:45:59;;;;;;;3.50;1.17;;;16.50;99.90;;;;;;5109417;28;20031;-84
2022/06/03 00:48:47;;;;;;;3.38;1.23;;;16.50;99.90;;;;;;5109134;28;20019;-82
2022/06/03 00:51:40;;;;;;;4.05;1.08;;;16.40;99.90;;;;;;5108571;28;20059;-84
2022/06/03 00:54:29;;;;;;;5.35;1.70;;;16.40;99.90;;;;;;5109634;28;20089;-85
2022/06/03 00:57:24;;;;;;;4.60;1.65;;;16.30;99.90;;;;;;5109427;28;20035;-84
2022/06/03 01:00:07;;;;;;;5.47;1.50;;;16.30;99.90;;;;;;5109249;28;20038;-85
2022/06/03 01:03:04;;;;;;;2.70;1.35;;;16.20;99.90;;;;;;5092032;28;20135;-85
2022/06/03 01:05:50;;;;;;;2.50;1.38;;;16.20;99.90;;;;;;5091425;28;20407;-82
2022/06/03 01:08:24;;;;;;;2.42;1.25;;;16.10;99.90;;;;;;5094279;28;20047;-83
2022/06/03 01:11:14;;;;;;;6.57;1.42;;;16.10;99.90;;;;;;5090660;28;20164;-84
2022/06/03 01:14:10;;;;;;;5.85;2.17;;;16.00;99.90;;;;;;5108674;28;20023;-83
2022/06/03 01:16:58;;;;;;;3.97;1.83;;;16.00;99.90;;;;;;5090217;28;20032;-84
2022/06/03 01:19:55;;;;;;;2.78;1.90;;;15.90;99.90;;;;;;5108247;28;20036;-84
2022/06/03 01:22:36;;;;;;;7.43;2.00;;;15.90;99.90;;;;;;5108649;28;20030;-85
2022/06/03 01:25:27;;;;;;;3.40;2.00;;;15.90;99.90;;;;;;5092229;28;20030;-85
2022/06/03 01:28:20;;;;;;;4.35;1.80;;;15.90;99.90;;;;;;5110113;28;20288;-85
2022/06/03 01:31:16;;;;;;;5.13;1.70;;;15.80;99.90;;;;;;5110096;28;20031;-86
2022/06/03 01:34:06;;;;;;;4.10;1.90;;;15.80;99.90;;;;;;5091714;28;20255;-85
2022/06/03 01:36:41;;;;;;;7.20;2.10;;;15.70;99.90;;;;;;5111610;28;20020;-88
2022/06/03 01:39:25;;;;;;;5.07;2.05;;;15.70;99.90;;;;;;5110248;28;20124;-86
2022/06/03 01:42:22;;;;;;;4.00;2.13;;;15.60;99.90;;;;;;5110020;28;20124;-86
2022/06/03 01:45:08;;;;;;;3.75;2.00;;;15.60;99.90;;;;;;5088163;28;20036;-86
2022/06/03 01:48:02;;;;;;;4.45;1.83;;;15.60;99.90;;;;;;5091327;28;20027;-86
2022/06/03 01:50:50;;;;;;;4.70;1.90;;;15.50;99.90;;;;;;5108940;28;20064;-85
2022/06/03 01:53:28;;;;;;;4.80;2.00;;;15.50;99.90;;;;;;5107935;28;20035;-85
2022/06/03 01:56:31;;;;;;;3.80;2.10;;;15.50;99.90;;;;;;5091409;28;20051;-84
2022/06/03 01:59:15;;;;;;;3.03;1.75;;;15.40;99.90;;;;;;5090465;28;20092;-85
2022/06/03 02:01:53;;;;;;;3.90;2.15;;;15.40;99.90;;;;;;5091233;28;20023;-85
2022/06/03 02:04:36;;;;;;;3.38;1.33;;;15.40;99.90;;;;;;5108905;28;20138;-86
2022/06/03 02:07:08;;;;;;;7.15;2.15;;;15.40;99.90;;;;;;5090883;28;20240;-86
2022/06/03 02:09:40;;;;;;;5.40;1.90;;;15.30;99.90;;;;;;5091032;28;20477;-86
2022/06/03 02:12:24;;;;;;;2.83;1.45;;;15.30;99.90;;;;;;5090437;28;20043;-87
2022/06/03 02:15:27;;;;;;;5.57;2.05;;;15.30;99.90;;;;;;5091228;28;20023;-87
2022/06/03 02:18:14;;;;;;;4.20;2.22;;;15.30;99.90;;;;;;5109093;28;20527;-86
2022/06/03 02:20:46;;;;;;;4.97;1.92;;;15.40;99.90;;;;;;5107967;28;20057;-85
2022/06/03 02:23:29;;;;;;;2.95;2.13;;;15.40;99.90;;;;;;5089831;28;20027;-85
2022/06/03 02:26:21;;;;;;;5.70;2.38;;;15.40;99.90;;;;;;5108492;28;20035;-84
2022/06/03 02:32:28;;;;;;;3.58;2.28;;;15.50;99.90;;;;;;5109584;28;20093;-88
2022/06/03 02:35:15;;;;;;;7.75;2.38;;;15.50;99.90;;;;;;5112176;28;20050;-85
2022/06/03 02:38:02;;;;;;;2.65;2.00;;;15.50;99.90;;;;;;5109352;28;20038;-86
2022/06/03 02:40:46;;;;;;;4.50;1.83;;;15.50;99.90;;;;;;5109517;28;20027;-84
2022/06/03 02:43:23;;;;;;;5.32;2.20;;;15.50;99.90;;;;;;5090183;28;20110;-85
2022/06/03 02:46:26;;;;;;;5.50;2.13;;;15.40;99.90;;;;;;5089941;28;20051;-86
2022/06/03 02:49:33;;;;;;;10.90;2.30;;;15.30;99.90;;;;;;5108578;28;20028;-86
2022/06/03 02:52:27;;;;;;;8.80;2.13;;;15.20;99.90;;;;;;5068194;28;20032;-84
2022/06/03 02:54:59;;;;;;;4.13;2.30;;;15.20;99.90;;;;;;5106189;28;20032;-85
2022/06/03 02:58:06;;;;;;;4.85;2.00;;;15.10;99.90;;;;;;5088303;28;20069;-84
2022/06/03 03:01:12;;;;;;;4.63;2.47;;;15.10;99.90;;;;;;5026722;28;20037;-87
2022/06/03 03:04:24;;;;;;;8.07;2.17;;;15.00;99.90;;;;;;5027711;28;20036;-87
2022/06/03 03:07:19;;;;;;;4.90;2.33;;;15.00;99.90;;;;;;5086251;28;20057;-87
2022/06/03 03:10:05;;;;;;;4.00;2.22;;;15.00;99.90;;;;;;5091267;28;20054;-86
2022/06/03 03:13:16;;;;;;;3.22;2.45;;;15.00;99.90;;;;;;5108464;28;20027;-88
2022/06/03 03:15:59;;;;;;;7.88;2.75;;;15.00;99.90;;;;;;5109857;28;20034;-87
2022/06/03 03:18:49;;;;;;;3.53;2.58;;;15.00;99.90;;;;;;5091511;28;20031;-87
2022/06/03 03:21:49;;;;;;;8.45;2.55;;;15.10;99.90;;;;;;5109880;28;20538;-87
2022/06/03 03:24:34;;;;;;;4.05;2.80;;;15.20;99.90;;;;;;5065075;28;20036;-87
2022/06/03 03:27:41;;;;;;;7.25;2.50;;;15.20;99.90;;;;;;5109681;28;20157;-88
2022/06/03 03:30:15;;;;;;;5.80;2.33;;;15.20;99.90;;;;;;5108500;28;20020;-87
2022/06/03 03:33:27;;;;;;;4.68;2.90;;;15.30;99.90;;;;;;5108249;28;20803;-86
2022/06/03 03:35:58;;;;;;;4.53;2.03;;;15.50;99.90;;;;;;5107429;28;20038;-85
2022/06/03 03:38:33;;;;;;;3.58;1.95;;;15.60;99.90;;;;;;5110282;28;20637;-86
2022/06/03 03:41:20;;;;;;;3.08;1.92;;;15.80;99.90;;;;;;5093881;28;20023;-85
2022/06/03 03:44:08;;;;;;;10.88;2.58;;;15.90;99.90;;;;;;5094673;28;20140;-85
2022/06/03 03:46:52;;;;;;;4.53;2.17;;;16.10;99.90;;;;;;5112937;28;20108;-86
2022/06/03 03:49:39;;;;;;;2.88;1.63;;;16.40;99.90;;;;;;5111686;28;20023;-86
2022/06/03 03:52:05;;;;;;;10.30;1.70;;;16.50;99.90;;;;;;5093945;28;20487;-86
2022/06/03 03:54:49;;;;;;;3.33;2.20;;;16.70;99.90;;;;;;5112415;28;20027;-85
2022/06/03 03:57:43;;;;;;;9.82;1.52;;;16.90;99.90;;;;;;5093370;28;20024;-85
2022/06/03 04:00:33;;;;;;;3.75;2.03;;;17.20;99.90;;;;;;5110601;28;20031;-85
2022/06/03 04:03:37;;;;;;;8.18;2.00;;;17.60;99.90;;;;;;5111180;28;20047;-83
2022/06/03 04:06:12;;;;;;;5.32;1.80;;;18.00;99.90;;;;;;5091775;28;20039;-84
2022/06/03 04:09:00;;;;;;;2.53;1.58;;;18.40;99.90;;;;;;5110347;28;20130;-84
2022/06/03 04:11:29;;;;;;;5.63;1.70;;;18.70;99.90;;;;;;5109851;28;20058;-85
2022/06/03 04:14:21;;;;;;;2.33;1.27;;;18.80;99.90;;;;;;5111594;28;20024;-84
2022/06/03 04:17:13;;;;;;;2.08;1.27;;;18.90;99.90;;;;;;5111550;28;20088;-83
2022/06/03 04:19:50;;;;;;;3.42;1.23;;;18.90;99.90;;;;;;5111271;28;20067;-85
2022/06/03 04:22:35;;;;;;;2.33;1.30;;;19.00;99.90;;;;;;5092020;28;20106;-84
2022/06/03 04:25:38;;;;;;;2.53;1.30;;;19.20;99.90;;;;;;5112008;28;20032;-84
2022/06/03 04:28:29;;;;;;;2.15;1.02;;;19.30;99.60;;;;;;5111605;28;20503;-84
2022/06/03 04:31:16;;;;;;;5.78;1.55;;;19.40;99.30;;;;;;5110451;28;20035;-82
2022/06/03 04:34:08;;;;;;;2.50;1.10;;;19.50;98.80;;;;;;5110512;28;20058;-81
2022/06/03 04:36:37;;;;;;;2.60;1.35;;;19.60;98.50;;;;;;5091982;28;20027;-80
2022/06/03 04:39:34;;;;;;;2.25;1.20;;;19.70;98.40;;;;;;5091742;28;20127;-82
2022/06/03 04:42:26;;;;;;;3.47;1.52;;;19.70;98.00;;;;;;5092201;28;20020;-80
2022/06/03 04:45:13;;;;;;;4.75;1.55;;;19.70;97.80;;;;;;5078785;28;20036;-81
2022/06/03 04:47:53;;;;;;;6.97;1.52;;;19.80;97.60;;;;;;5110206;28;20473;-80
2022/06/03 04:50:28;;;;;;;3.17;1.23;;;19.90;97.30;;;;;;5100208;28;20031;-82
2022/06/03 04:53:23;;;;;;;3.55;1.55;;;20.00;97.10;;;;;;5108663;28;20024;-80
2022/06/03 04:56:21;;;;;;;3.22;1.23;;;20.10;96.70;;;;;;5111396;28;20111;-83
2022/06/03 04:59:28;;;;;;;3.05;1.25;;;20.20;96.40;;;;;;5112253;28;20100;-81
2022/06/03 05:02:14;;;;;;;5.67;1.53;;;20.40;95.70;;;;;;5108021;28;20032;-83
2022/06/03 05:05:17;;;;;;;3.43;1.50;;;20.50;95.50;;;;;;5088536;28;20063;-82
2022/06/03 05:07:57;;;;;;;4.55;1.45;;;20.80;95.10;;;;;;5072923;28;20032;-85
2022/06/03 05:10:54;;;;;;;3.38;1.60;;;20.90;94.30;;;;;;5102291;28;20108;-85
2022/06/03 05:13:56;;;;;;;3.93;1.77;;;21.20;93.70;;;;;;5109088;28;20119;-81
2022/06/03 05:16:28;;;;;;;5.18;1.20;;;21.50;93.40;;;;;;5097037;28;20035;-82
2022/06/03 05:18:54;;;;;;;4.57;1.40;;;21.70;92.60;;;;;;5091415;28;20032;-83
2022/06/03 05:22:07;;;;;;;5.07;1.55;;;21.90;91.90;;;;;;5098012;28;20032;-82
2022/06/03 05:25:02;;;;;;;5.20;1.42;;;22.00;90.40;;;;;;5062742;28;20048;-83
2022/06/03 05:28:01;;;;;;;2.70;1.20;;;22.20;89.90;;;;;;5088103;28;20028;-82
2022/06/03 05:30:47;;;;;;;4.20;1.20;;;22.30;88.40;;;;;;5104569;28;20031;-81
2022/06/03 05:33:39;;;;;;;12.70;1.40;;;22.40;88.00;;;;;;5107982;28;20427;-83
2022/06/03 05:36:28;;;;;;;1.63;1.17;;;22.60;85.90;;;;;;5094217;28;20043;-83
2022/06/03 05:39:24;;;;;;;5.18;1.52;;;22.90;84.80;;;;;;5109015;28;20044;-82
2022/06/03 05:42:29;;;;;;;2.50;1.10;;;23.10;82.40;;;;;;5087432;28;20031;-83
2022/06/03 05:45:04;;;;;;;6.63;2.35;;;23.50;81.50;;;;;;5101865;28;20028;-83
2022/06/03 05:47:34;;;;;;;2.72;1.23;;;23.90;78.30;;;;;;5087827;28;20032;-82
2022/06/03 05:50:05;;;;;;;3.55;2.08;;;24.30;74.30;;;;;;5086900;28;20028;-81
2022/06/03 05:52:59;;;;;;;21.08;11.10;;;24.80;67.10;;;;;;5069384;28;20029;-82
2022/06/03 05:55:48;;;;;;;36.95;21.05;;;26.20;55.10;;;;;;5085779;28;20032;-81
2022/06/03 05:58:13;;;;;;;15.43;6.00;;;27.30;50.30;;;;;;5087185;28;20032;-81
2022/06/03 06:00:54;;;;;;;28.33;14.52;;;28.40;45.50;;;;;;5086583;28;20024;-80
2022/06/03 06:03:44;;;;;;;8.82;3.30;;;29.70;41.10;;;;;;5089882;28;20434;-81
2022/06/03 06:06:36;;;;;;;65.63;38.80;;;30.80;37.60;;;;;;5103471;28;20500;-82
2022/06/03 06:09:21;;;;;;;10.13;4.85;;;31.80;35.80;;;;;;5085657;28;20050;-82
2022/06/03 06:12:11;;;;;;;15.20;7.25;;;32.90;32.30;;;;;;5071621;28;20039;-82
2022/06/03 06:14:53;;;;;;;25.95;13.52;;;33.20;31.00;;;;;;5082336;28;20124;-80
2022/06/03 06:17:41;;;;;;;35.13;18.05;;;33.40;29.60;;;;;;5086693;28;20047;-79
2022/06/03 06:20:41;;;;;;;28.00;15.57;;;33.70;28.70;;;;;;5102068;28;20122;-79
2022/06/03 06:23:21;;;;;;;14.70;4.65;;;34.00;27.90;;;;;;5044172;28;20074;-82
2022/06/03 06:26:28;;;;;;;47.20;26.15;;;34.00;27.90;;;;;;5086486;28;20028;-82
2022/06/03 06:29:08;;;;;;;23.55;12.30;;;34.00;27.10;;;;;;5080789;28;20048;-80
2022/06/03 06:31:51;;;;;;;13.52;5.10;;;33.70;27.20;;;;;;5077707;28;20032;-79
2022/06/03 06:34:45;;;;;;;13.07;6.68;;;33.90;26.80;;;;;;5065253;28;20024;-81
2022/06/03 06:37:45;;;;;;;15.98;6.70;;;34.20;27.50;;;;;;5065464;28;20413;-80
2022/06/03 06:40:14;;;;;;;9.73;3.35;;;34.60;26.80;;;;;;5083807;28;20525;-80
2022/06/03 06:42:51;;;;;;;7.15;3.63;;;34.60;26.00;;;;;;5086692;28;20574;-80
2022/06/03 06:45:58;;;;;;;18.70;9.60;;;34.60;26.70;;;;;;5085375;28;20032;-81
2022/06/03 06:49:01;;;;;;;9.80;5.05;;;34.70;25.30;;;;;;5086358;28;20081;-80
2022/06/03 06:51:45;;;;;;;3.08;1.58;;;33.90;26.30;;;;;;5079446;28;20044;-80
2022/06/03 06:54:13;;;;;;;7.30;3.13;;;34.00;26.20;;;;;;5102085;28;20032;-79
2022/06/03 06:56:59;;;;;;;3.88;1.50;;;33.80;26.10;;;;;;5085924;28;20085;-80
2022/06/03 06:59:34;;;;;;;4.00;1.45;;;33.50;26.50;;;;;;5085877;28;20135;-80
2022/06/03 07:02:10;;;;;;;3.60;1.10;;;33.50;26.60;;;;;;5101818;28;20030;-80
2022/06/03 07:04:41;;;;;;;2.38;1.17;;;33.70;26.60;;;;;;5085158;28;20467;-80
2022/06/03 07:07:06;;;;;;;3.53;0.90;;;33.70;26.50;;;;;;5085949;28;20773;-80
2022/06/03 07:09:38;;;;;;;5.38;2.60;;;33.50;26.30;;;;;;5106504;28;20038;-80
2022/06/03 07:12:07;;;;;;;2.33;1.00;;;33.80;26.40;;;;;;5106195;28;20035;-80
2022/06/03 07:14:51;;;;;;;1.67;0.90;;;33.80;26.20;;;;;;5110813;28;20024;-79
2022/06/03 07:20:41;;;;;;;5.53;1.42;;;33.40;26.60;;;;;;5109409;28;20067;-80
2022/06/03 07:23:23;;;;;;;10.30;4.20;;;33.30;26.50;;;;;;5094196;28;20551;-81
2022/06/03 07:25:57;;;;;;;7.47;2.60;;;33.30;27.10;;;;;;5091295;28;20116;-80
2022/06/03 07:28:35;;;;;;;3.40;1.58;;;33.20;27.30;;;;;;5099635;28;20028;-80
2022/06/03 07:31:06;;;;;;;6.68;1.85;;;33.40;27.60;;;;;;5080248;28;20035;-79
2022/06/03 07:33:32;;;;;;;14.20;2.40;;;33.40;27.60;;;;;;5082896;28;20543;-80
2022/06/03 07:36:18;;;;;;;4.07;1.70;;;33.30;28.00;;;;;;5092226;28;20023;-80
2022/06/03 07:38:58;;;;;;;4.63;1.77;;;33.60;27.50;;;;;;5109568;28;20112;-79
2022/06/03 07:41:35;;;;;;;5.47;1.38;;;33.90;27.30;;;;;;5101997;28;20059;-80
2022/06/03 07:44:44;;;;;;;2.17;1.20;;;33.90;27.40;;;;;;5092841;28;20023;-83
2022/06/03 07:47:11;;;;;;;7.22;1.30;;;34.10;26.50;;;;;;5051257;28;20036;-81
2022/06/03 07:49:38;;;;;;;5.32;1.95;;;33.60;27.40;;;;;;5089222;28;20448;-82
2022/06/03 07:52:21;;;;;;;2.33;1.30;;;33.80;27.50;;;;;;5071456;28;20024;-81
2022/06/03 07:54:58;;;;;;;6.28;1.73;;;33.50;26.70;;;;;;5089801;28;20100;-81
2022/06/03 07:57:29;;;;;;;4.07;1.02;;;33.30;27.10;;;;;;5080368;28;20040;-78
2022/06/03 08:00:03;;;;;;;3.80;1.10;;;33.20;26.90;;;;;;5089239;28;20048;-80
2022/06/03 08:02:29;;;;;;;4.00;2.00;;;33.00;27.10;;;;;;5071036;28;20024;-79
2022/06/03 08:05:09;;;;;;;2.05;0.80;;;33.00;27.10;;;;;;5089275;28;20040;-79
2022/06/03 08:13:19;;;;;;;6.50;1.10;;;32.70;28.10;;;;;;5099268;28;20027;-80
2022/06/03 08:15:57;;;;;;;3.20;1.08;;;33.00;27.10;;;;;;5086522;28;20028;-79
2022/06/03 08:18:26;;;;;;;3.17;1.70;;;33.10;26.50;;;;;;5070186;28;20055;-80
2022/06/03 08:20:59;;;;;;;2.33;1.05;;;33.00;27.70;;;;;;5106334;28;20408;-80
2022/06/03 08:23:30;;;;;;;6.45;1.17;;;33.30;27.60;;;;;;5109062;28;20445;-79
2022/06/03 08:25:58;;;;;;;3.38;1.00;;;33.50;27.30;;;;;;5107716;28;20025;-80
2022/06/03 08:28:27;;;;;;;5.70;0.95;;;33.30;27.20;;;;;;5087143;28;20028;-80
2022/06/03 08:30:56;;;;;;;3.22;1.10;;;33.60;26.70;;;;;;5070704;28;20028;-82
2022/06/03 08:33:49;;;;;;;7.68;1.30;;;33.50;27.20;;;;;;5088507;28;20484;-81
2022/06/03 08:36:21;;;;;;;3.45;1.23;;;33.70;27.00;;;;;;5085705;28;20036;-82
2022/06/03 08:39:07;;;;;;;2.40;1.02;;;33.50;27.40;;;;;;5087963;28;20040;-82
2022/06/03 08:41:36;;;;;;;3.83;1.27;;;33.60;27.30;;;;;;5070215;28;20419;-81
2022/06/03 08:44:23;;;;;;;4.35;1.23;;;33.50;26.60;;;;;;5069825;28;20039;-83
2022/06/03 08:46:58;;;;;;;3.58;1.20;;;33.70;26.80;;;;;;5069927;28;20496;-82
2022/06/03 08:49:28;;;;;;;2.53;0.90;;;33.70;27.50;;;;;;5088236;28;20032;-81
2022/06/03 08:52:05;;;;;;;2.88;1.17;;;34.20;28.10;;;;;;5088416;28;20059;-82
2022/06/03 08:54:35;;;;;;;5.43;1.00;;;34.40;27.70;;;;;;5088066;28;20389;-81
2022/06/03 08:57:11;;;;;;;1.58;1.00;;;34.60;26.00;;;;;;5087817;28;20020;-82
2022/06/03 08:59:48;;;;;;;1.70;0.98;;;34.10;27.00;;;;;;5088009;28;20740;-82
2022/06/03 09:02:32;;;;;;;6.78;1.15;;;34.00;27.10;;;;;;5069345;28;20089;-81
2022/06/03 09:05:08;;;;;;;4.85;1.17;;;33.90;26.80;;;;;;5087722;28;20534;-81
2022/06/03 09:08:02;;;;;;;4.00;1.10;;;34.00;27.20;;;;;;5087764;28;20071;-83
2022/06/03 09:10:40;;;;;;;5.60;1.20;;;33.90;27.00;;;;;;5087776;28;20099;-82
2022/06/03 09:13:17;;;;;;;2.35;1.10;;;34.00;27.00;;;;;;5069877;28;20024;-82
2022/06/03 09:15:45;;;;;;;1.83;1.20;;;34.40;26.40;;;;;;5087602;28;20036;-82
2022/06/03 09:18:26;;;;;;;3.58;1.00;;;34.30;26.70;;;;;;5087088;28;20101;-82
2022/06/03 09:21:04;;;;;;;3.92;1.15;;;34.10;26.90;;;;;;5087848;28;20032;-83
2022/06/03 09:23:36;;;;;;;2.47;0.93;;;34.20;27.80;;;;;;5085860;28;20416;-81
2022/06/03 09:26:02;;;;;;;5.80;1.10;;;34.50;26.50;;;;;;5087231;28;20059;-82
2022/06/03 09:28:32;;;;;;;6.60;1.13;;;34.40;26.60;;;;;;5087266;28;20035;-83
2022/06/03 09:31:01;;;;;;;1.67;1.00;;;34.90;27.10;;;;;;5087482;28;20117;-82
2022/06/03 09:33:28;;;;;;;1.95;1.20;;;34.80;26.50;;;;;;5087539;28;20077;-80
2022/06/03 09:35:58;;;;;;;4.15;1.15;;;34.50;25.90;;;;;;5097622;28;20042;-79
2022/06/03 09:38:26;;;;;;;2.80;1.15;;;34.40;26.10;;;;;;5089057;28;20126;-82
2022/06/03 09:40:57;;;;;;;2.28;0.77;;;34.80;26.40;;;;;;5107431;28;20046;-82
2022/06/03 09:43:25;;;;;;;3.17;1.20;;;35.20;26.30;;;;;;5107902;28;20063;-83
2022/06/03 09:45:53;;;;;;;3.83;1.00;;;35.10;25.60;;;;;;5107579;28;20102;-82
2022/06/03 09:48:23;;;;;;;3.25;1.17;;;34.80;25.90;;;;;;5107632;28;20035;-82
2022/06/03 09:50:52;;;;;;;7.88;1.30;;;34.50;25.80;;;;;;5089671;28;20032;-79
2022/06/03 09:53:22;;;;;;;3.38;1.15;;;34.50;26.40;;;;;;5106782;28;20479;-81
2022/06/03 09:55:51;;;;;;;2.03;1.00;;;34.60;26.40;;;;;;5107514;28;20037;-81
2022/06/03 09:58:22;;;;;;;6.88;1.10;;;34.50;26.80;;;;;;5107479;28;20043;-80
2022/06/03 10:00:51;;;;;;;2.25;1.00;;;34.40;26.50;;;;;;5088982;28;20067;-81
2022/06/03 10:03:18;;;;;;;2.88;0.80;;;33.90;25.80;;;;;;5107561;28;20032;-81
2022/06/03 10:05:49;;;;;;;9.45;1.25;;;33.20;26.50;;;;;;5107342;28;20035;-79
2022/06/03 10:08:18;;;;;;;3.85;1.15;;;32.70;27.70;;;;;;5088762;28;20598;-81
2022/06/03 10:13:31;;;;;;;3.38;1.23;;;32.00;28.30;;;;;;5108098;28;20123;-81
2022/06/03 10:15:59;;;;;;;2.28;1.33;;;31.30;28.80;;;;;;5107724;28;20024;-80
2022/06/03 10:18:39;;;;;;;2.60;1.27;;;31.00;28.80;;;;;;5107691;28;20032;-81
2022/06/03 10:21:05;;;;;;;4.03;1.27;;;30.80;29.90;;;;;;5093188;28;20024;-81
2022/06/03 10:23:35;;;;;;;4.80;1.35;;;30.70;29.20;;;;;;5085787;28;20038;-83
2022/06/03 10:26:01;;;;;;;1.73;1.00;;;30.60;30.10;;;;;;5068404;28;20028;-82
2022/06/03 10:28:40;;;;;;;2.60;1.23;;;30.60;30.20;;;;;;5087311;28;20044;-82
2022/06/03 10:31:18;;;;;;;3.47;0.93;;;30.50;29.60;;;;;;5085722;28;20511;-82
2022/06/03 10:34:04;;;;;;;3.53;0.88;;;30.30;29.80;;;;;;5069701;28;20039;-82
2022/06/03 10:36:35;;;;;;;1.77;0.82;;;30.20;29.30;;;;;;5087692;28;20022;-83
2022/06/03 10:39:01;;;;;;;3.55;0.88;;;30.10;30.10;;;;;;5069025;28;20040;-83
2022/06/03 10:41:34;;;;;;;4.22;1.17;;;30.10;30.10;;;;;;5068818;28;20475;-84
2022/06/03 10:44:00;;;;;;;3.88;0.90;;;30.10;30.50;;;;;;5087184;28;20543;-83
2022/06/03 10:46:25;;;;;;;4.45;1.33;;;29.90;30.10;;;;;;5087007;28;20103;-82
2022/06/03 10:48:51;;;;;;;3.20;1.02;;;29.80;29.50;;;;;;5072083;28;20028;-83
2022/06/03 11:01:06;;;;;;;2.80;0.80;;;29.50;29.20;;;;;;5091356;28;20091;-82
2022/06/03 11:02:39;;;;;;;1.90;0.90;;;29.90;31.10;;;;;;5091260;28;20227;-82
2022/06/03 11:05:21;;;;;;;5.75;0.90;;;30.00;29.30;;;;;;5072584;28;20055;-82
2022/06/03 11:08:16;;;;;;;2.65;1.30;;;30.00;30.40;;;;;;5090321;28;20040;-83
2022/06/03 11:10:45;;;;;;;4.03;1.10;;;30.10;29.70;;;;;;5065727;28;20047;-83
2022/06/03 11:13:14;;;;;;;3.40;0.75;;;30.00;29.20;;;;;;5090539;28;20046;-81
2022/06/03 11:15:43;;;;;;;3.67;0.90;;;29.90;30.00;;;;;;5073090;28;20517;-81
2022/06/03 11:18:32;;;;;;;2.85;0.77;;;30.00;30.80;;;;;;5090421;28;20028;-82
2022/06/03 11:21:17;;;;;;;3.85;0.90;;;30.20;29.60;;;;;;5089832;28;20128;-82
2022/06/03 11:23:43;;;;;;;2.05;0.77;;;30.10;28.80;;;;;;5072289;28;20440;-81
2022/06/03 11:26:10;;;;;;;4.85;1.00;;;29.90;29.10;;;;;;5090746;28;20028;-81
2022/06/03 11:28:47;;;;;;;7.90;0.93;;;29.70;29.40;;;;;;5090886;28;20078;-82
2022/06/03 11:31:21;;;;;;;7.38;1.00;;;29.60;30.00;;;;;;5091013;28;20066;-81
2022/06/03 11:33:56;;;;;;;3.90;0.90;;;29.60;29.50;;;;;;5090010;28;20047;-81
2022/06/03 11:36:35;;;;;;;2.22;0.90;;;29.50;30.00;;;;;;5071613;28;20495;-81
2022/06/03 11:39:25;;;;;;;5.32;1.20;;;29.40;29.50;;;;;;5090827;28;20040;-81
2022/06/03 11:42:00;;;;;;;3.65;0.80;;;29.40;29.80;;;;;;5072590;28;20442;-81
2022/06/03 11:47:57;;;;;;;1.85;0.80;;;29.30;30.30;;;;;;5090421;28;20703;-80
2022/06/03 11:50:27;;;;;;;5.60;0.82;;;29.30;30.00;;;;;;5089891;28;20028;-81
2022/06/03 11:52:54;;;;;;;5.32;0.90;;;29.40;29.70;;;;;;5072279;28;20024;-81
2022/06/03 11:55:23;;;;;;;5.63;1.00;;;29.50;29.90;;;;;;5072629;28;20055;-81
2022/06/03 11:58:14;;;;;;;4.95;1.25;;;29.50;29.80;;;;;;5072080;28;20065;-82
2022/06/03 12:00:51;;;;;;;2.65;0.95;;;29.40;30.40;;;;;;5089902;28;20039;-81
2022/06/03 12:03:28;;;;;;;4.07;1.00;;;29.40;29.70;;;;;;5072080;28;20243;-81
2022/06/03 12:06:24;;;;;;;1.92;0.95;;;29.50;30.70;;;;;;5071334;28;20032;-81
2022/06/03 12:09:03;;;;;;;2.42;1.13;;;29.70;30.80;;;;;;5068536;28;20493;-81
2022/06/03 12:14:37;;;;;;;2.35;0.88;;;29.90;30.40;;;;;;5069769;28;20101;-81
2022/06/03 12:17:09;;;;;;;2.10;0.90;;;30.00;29.60;;;;;;5069883;28;20116;-80
2022/06/03 12:19:46;;;;;;;2.03;0.90;;;29.80;30.00;;;;;;5068436;28;20040;-81
2022/06/03 12:22:30;;;;;;;2.42;0.90;;;29.90;30.00;;;;;;5069221;28;20028;-81
2022/06/03 12:24:57;;;;;;;2.00;1.10;;;29.90;30.50;;;;;;5069542;28;20033;-82
2022/06/03 12:27:35;;;;;;;3.65;0.90;;;29.90;30.70;;;;;;5069391;28;20609;-81
2022/06/03 12:30:18;;;;;;;2.13;1.02;;;29.90;30.70;;;;;;5069314;28;20592;-82
2022/06/03 12:32:53;;;;;;;2.83;1.23;;;29.90;30.20;;;;;;5068134;28;20036;-80
2022/06/03 12:35:44;;;;;;;4.45;1.10;;;29.80;30.00;;;;;;5069635;28;20400;-81
2022/06/03 12:38:43;;;;;;;1.88;0.90;;;29.80;30.40;;;;;;5068918;28;20116;-81
2022/06/03 12:41:10;;;;;;;2.58;1.10;;;29.70;30.60;;;;;;5041690;28;20041;-80
2022/06/03 12:43:44;;;;;;;3.90;1.15;;;29.70;30.80;;;;;;5069317;28;20033;-81
2022/06/03 12:46:48;;;;;;;4.55;0.88;;;29.70;30.80;;;;;;5067757;28;20024;-81
2022/06/03 12:49:31;;;;;;;2.30;1.00;;;29.80;31.20;;;;;;5084803;28;20382;-81
2022/06/03 12:52:05;;;;;;;3.85;0.70;;;30.00;30.80;;;;;;5068840;28;20028;-81
2022/06/03 12:54:34;;;;;;;1.40;0.75;;;30.10;29.80;;;;;;5068845;28;20047;-81
2022/06/03 12:57:16;;;;;;;3.80;0.70;;;30.00;30.00;;;;;;5069203;28;20384;-80
2022/06/03 12:59:57;;;;;;;1.73;0.70;;;30.00;30.20;;;;;;5084186;28;20041;-81
2022/06/03 13:02:26;;;;;;;8.70;1.10;;;30.10;30.30;;;;;;5068724;28;20546;-81
2022/06/03 13:04:55;;;;;;;3.80;0.98;;;30.10;30.10;;;;;;5067489;28;20032;-80
2022/06/03 13:07:26;;;;;;;6.70;1.15;;;30.20;30.50;;;;;;5067170;28;20075;-81
2022/06/03 13:09:58;;;;;;;2.38;1.00;;;30.20;29.80;;;;;;5069058;28;20031;-81
2022/06/03 13:12:43;;;;;;;2.60;0.85;;;30.10;29.80;;;;;;5068324;28;20036;-82
2022/06/03 13:15:20;;;;;;;5.68;1.15;;;29.90;29.70;;;;;;5068826;28;20035;-81
2022/06/03 13:18:20;;;;;;;7.95;1.10;;;29.70;30.20;;;;;;5069068;28;20035;-81
2022/06/03 13:21:10;;;;;;;2.47;0.98;;;29.70;31.10;;;;;;5068884;28;20064;-82
2022/06/03 13:23:52;;;;;;;2.47;0.90;;;29.70;30.60;;;;;;5067532;28;20090;-82
2022/06/03 13:26:20;;;;;;;3.92;1.05;;;29.80;30.90;;;;;;5068654;28;20030;-81
2022/06/03 13:28:48;;;;;;;4.40;1.00;;;29.70;30.10;;;;;;5067417;28;20273;-83
2022/06/03 13:31:19;;;;;;;2.53;0.85;;;29.70;31.20;;;;;;5067592;28;20037;-82
2022/06/03 13:34:08;;;;;;;4.07;1.20;;;29.80;31.40;;;;;;5085184;28;20127;-81
2022/06/03 13:36:51;;;;;;;3.38;0.80;;;29.90;30.90;;;;;;5068098;28;20028;-82
2022/06/03 13:39:23;;;;;;;4.25;0.90;;;29.90;30.80;;;;;;5066684;28;20032;-82
2022/06/03 13:44:41;;;;;;;1.63;0.98;;;30.10;31.20;;;;;;5068304;28;20036;-81
2022/06/03 13:47:13;;;;;;;4.15;1.23;;;30.10;30.70;;;;;;5068175;28;20029;-82
2022/06/03 13:49:53;;;;;;;7.32;0.82;;;30.20;30.60;;;;;;5084018;28;20028;-82
2022/06/03 13:52:25;;;;;;;2.80;0.82;;;30.20;31.10;;;;;;5083916;28;20033;-81
2022/06/03 13:55:14;;;;;;;4.40;1.52;;;30.10;30.50;;;;;;5083863;28;20052;-82
2022/06/03 13:57:43;;;;;;;10.77;0.80;;;30.00;30.60;;;;;;5039224;28;20058;-81
2022/06/03 14:00:35;;;;;;;7.75;0.98;;;29.90;30.60;;;;;;5067060;28;20471;-82
2022/06/03 14:03:03;;;;;;;2.58;1.20;;;29.80;30.10;;;;;;5066767;28;20884;-82
2022/06/03 14:05:35;;;;;;;2.45;0.90;;;29.80;30.90;;;;;;5067565;28;20028;-81
2022/06/03 14:08:21;;;;;;;3.90;0.70;;;29.70;31.10;;;;;;5077290;28;20052;-82
2022/06/03 14:11:01;;;;;;;4.15;0.90;;;29.70;30.60;;;;;;5087946;28;20024;-82
2022/06/03 14:13:43;;;;;;;4.13;0.75;;;29.60;30.20;;;;;;5068838;28;20031;-81
2022/06/03 14:16:33;;;;;;;2.10;0.75;;;29.60;30.50;;;;;;5087244;28;20020;-82
2022/06/03 14:19:08;;;;;;;3.58;1.00;;;29.60;30.40;;;;;;5069948;28;20480;-82
2022/06/03 14:21:54;;;;;;;13.98;1.05;;;29.50;30.00;;;;;;5085839;28;20039;-81
2022/06/03 14:24:25;;;;;;;1.75;1.00;;;29.40;30.50;;;;;;5086196;28;20036;-80
2022/06/03 14:27:02;;;;;;;4.03;1.23;;;29.50;30.90;;;;;;5086165;28;20032;-82
2022/06/03 14:29:53;;;;;;;2.08;0.80;;;29.60;30.90;;;;;;5086703;28;20048;-81
2022/06/03 14:32:23;;;;;;;2.67;1.10;;;29.60;30.20;;;;;;5086491;28;20028;-81